Date,TemperatureHighF,TemperatureAvgF,TemperatureLowF,DewpointHighF,DewpointAvgF,DewpointLowF,HumidityHigh,HumidityAvg,HumidityLow,PressureMaxIn,PressureMinIn,WindSpeedMaxMPH,WindSpeedAvgMPH,GustSpeedMaxMPH,PrecipitationSumIn
2013-1-1,37.6,30.7,17.5,26.4,18.1,5.6,74,60,45,29.95,29.73,16,1,16,0.03
2013-1-2,30.2,19.3,10.4,17.9,8.6,-2.2,81,63,51,30.13,29.92,14,1,14,0.00
2013-1-3,27.7,13.9,4.2,10.8,0.5,-5.5,78,56,30,30.16,30.02,14,0,14,0.00
2013-1-4,39.7,27.1,12.6,24.2,18.5,9.1,92,71,50,30.02,29.83,13,1,13,0.03
2013-1-5,42.6,32.2,21.6,25.3,20.9,16.6,84,65,36,30.28,29.87,10,0,10,0.03
2013-1-6,44.4,32.8,23.1,28.4,25.6,18.7,87,76,52,30.25,29.95,12,0,12,0.02
2013-1-7,39.9,31.0,22.3,29.2,22.8,14.8,95,74,42,30.42,29.98,14,0,14,0.00
2013-1-8,47.4,34.4,24.6,29.2,26.8,23.2,95,76,47,30.39,30.27,13,1,13,0.00
2013-1-9,43.7,35.9,23.5,35.4,28.7,21.8,96,76,55,30.42,30.01,11,0,11,0.00
2013-1-10,47.6,41.0,30.8,28.1,24.5,22.5,74,52,39,30.56,30.05,13,2,13,0.00
2013-1-11,41.1,34.9,25.7,36.3,28.6,22.1,95,78,64,30.54,30.25,7,0,7,0.10
2013-1-12,44.3,41.0,37.7,42.3,39.9,36.3,98,96,92,30.26,30.15,5,0,5,0.01
2013-1-13,52.5,46.9,42.1,49.9,45.7,41.6,98,96,90,30.17,30.00,10,0,10,0.01
2013-1-14,61.7,52.1,41.7,52.5,43.0,26.9,95,73,40,30.27,29.85,12,1,12,0.00
2013-1-15,41.6,37.8,33.0,27.8,25.7,23.7,74,62,53,30.34,30.24,6,0,6,0.00
2013-1-16,34.1,32.5,29.9,31.9,29.3,22.6,96,89,63,30.27,29.84,6,0,6,0.09
2013-1-17,42.7,34.4,29.0,32.9,27.5,12.7,98,77,50,30.11,29.85,9,1,9,0.27
2013-1-18,29.0,22.4,16.8,12.7,1.9,-4.6,53,41,28,30.47,30.08,15,1,15,0.00
2013-1-19,49.6,37.0,22.4,32.1,22.1,5.8,78,55,36,30.42,29.91,17,2,18,0.01
2013-1-20,53.7,41.4,28.3,32.8,25.4,9.8,74,54,34,29.94,29.55,20,2,20,0.00
2013-1-21,29.2,24.8,20.6,20.6,10.4,3.2,89,56,37,30.12,29.82,11,1,11,0.00
2013-1-22,25.9,20.3,12.5,19.7,8.7,-1.3,95,63,35,30.10,29.77,13,1,13,0.00
2013-1-23,18.5,11.3,6.2,0.6,-6.8,-11.5,64,44,27,30.16,30.08,14,1,14,0.00
2013-1-24,21.1,10.9,1.9,-5.5,-9.2,-12.3,58,41,24,30.24,30.07,17,2,17,0.00
2013-1-25,25.4,16.3,7.6,12.8,-5.7,-11.4,82,38,24,30.32,30.09,11,1,11,0.00
2013-1-26,25.9,17.4,11.3,12.8,2.8,-6.7,86,56,28,30.25,30.02,13,1,13,0.00
2013-1-27,32.8,20.8,12.3,2.9,0.7,-4.5,63,43,26,30.49,30.25,13,1,13,0.00
2013-1-28,31.2,25.0,17.9,27.4,12.4,0.9,94,62,29,30.47,30.04,7,0,7,0.00
2013-1-29,35.2,30.5,25.4,32.6,27.8,23.4,95,90,81,30.22,30.04,5,0,5,0.09
2013-1-30,61.7,49.4,33.9,57.1,47.5,32.6,98,93,84,30.18,29.48,19,1,19,0.18
2013-1-31,60.7,48.1,29.9,58.2,37.4,14.5,93,69,38,29.61,28.99,32,3,32,0.41
2013-2-1,33.6,28.7,22.0,17.5,8.8,3.9,60,43,32,30.10,29.61,15,2,16,0.00
2013-2-2,30.4,24.4,16.9,12.1,6.8,2.6,57,47,36,30.27,30.07,10,1,10,0.00
2013-2-3,26.7,24.6,21.5,22.4,19.8,11.9,90,82,54,30.08,29.75,7,0,7,0.00
2013-2-4,30.4,24.5,19.7,21.0,11.4,4.2,91,59,37,29.96,29.74,18,1,18,0.00
2013-2-5,29.8,25.0,20.2,23.6,13.2,7.8,91,61,45,30.05,29.96,8,0,8,0.00
2013-2-6,40.2,30.3,24.8,26.9,19.5,5.8,93,67,41,30.32,29.94,13,1,13,0.05
2013-2-7,31.5,24.0,15.4,17.8,4.0,-0.4,66,43,28,30.55,30.32,11,0,11,0.00
2013-2-8,32.8,29.4,17.7,31.2,25.8,15.9,97,87,65,30.51,29.62,12,1,12,0.00
2013-2-9,21.7,17.9,13.2,20.2,15.9,9.6,94,92,85,30.20,29.58,12,2,18,0.00
2013-2-10,43.9,22.4,8.0,17.4,10.0,3.6,86,64,20,30.42,30.21,12,0,12,0.10
2013-2-11,43.7,31.0,16.1,42.9,28.0,10.9,97,89,75,30.38,29.63,5,0,5,0.29
2013-2-12,45.7,38.4,32.1,35.8,29.1,25.6,98,70,50,29.90,29.62,15,1,15,0.00
2013-2-13,46.7,34.6,24.3,28.5,25.0,21.3,91,69,42,29.89,29.71,9,0,9,0.00
2013-2-14,48.8,36.2,28.5,28.3,23.9,20.5,83,63,34,30.02,29.73,8,0,8,0.00
2013-2-15,54.9,38.9,27.7,35.3,30.8,23.3,95,75,45,30.02,29.92,12,1,12,0.00
2013-2-16,39.2,34.5,29.2,32.7,27.3,17.7,96,76,55,29.97,29.74,11,1,11,0.04
2013-2-17,30.2,21.9,17.3,19.4,11.1,1.4,89,65,44,29.73,29.40,19,3,19,0.00
2013-2-18,33.3,23.0,14.0,4.2,1.9,-1.8,56,41,22,30.17,29.69,18,2,18,0.01
2013-2-19,49.1,36.8,22.4,42.2,24.1,3.2,97,62,41,30.18,29.59,13,1,13,0.43
2013-2-20,41.5,32.9,25.9,40.7,20.8,10.9,97,63,38,29.80,29.54,20,2,20,0.00
2013-2-21,34.4,27.7,23.8,16.0,13.5,10.4,69,55,41,30.20,29.79,15,2,15,0.00
2013-2-22,42.5,32.2,22.5,25.7,21.3,15.7,82,65,42,30.41,30.20,11,0,11,0.00
2013-2-23,39.2,34.7,28.7,32.8,29.4,23.7,96,81,70,30.36,29.95,7,0,7,0.08
2013-2-24,37.2,34.1,30.7,36.4,33.0,29.7,97,96,93,29.95,29.71,11,0,11,0.61
2013-2-25,43.6,34.9,29.9,32.9,30.6,28.6,96,85,61,30.27,29.92,4,0,4,0.37
2013-2-26,45.4,36.3,27.0,34.8,29.8,26.3,98,79,51,30.36,30.19,8,0,8,0.01
2013-2-27,41.0,39.3,37.8,39.7,37.7,32.0,97,94,79,30.19,29.58,13,2,13,1.55
2013-2-28,48.4,38.3,33.8,39.1,35.3,32.6,97,89,69,29.67,29.55,6,0,7,0.00
2013-3-1,41.9,37.7,32.4,35.5,30.9,27.9,96,77,63,29.70,29.55,9,0,9,0.00
2013-3-2,45.1,37.8,30.2,30.1,27.7,25.6,83,67,53,29.69,29.64,10,0,10,0.00
2013-3-3,43.2,36.2,32.4,33.0,29.1,25.2,91,75,64,29.67,29.58,9,1,9,0.00
2013-3-4,41.1,34.6,29.5,28.4,24.6,21.8,84,67,49,29.75,29.59,15,2,15,0.00
2013-3-5,46.4,37.0,30.6,33.0,27.9,22.4,91,70,52,30.09,29.76,14,1,14,0.00
2013-3-6,40.9,37.0,34.3,35.6,33.1,29.6,94,86,69,30.14,30.07,18,1,18,0.12
2013-3-7,35.9,32.5,30.6,32.4,30.1,28.7,95,91,77,30.10,30.01,17,1,17,0.17
2013-3-8,39.9,33.1,29.3,31.5,28.3,23.0,96,84,56,30.17,29.96,10,0,10,0.15
2013-3-9,48.9,36.5,27.1,32.9,26.7,21.2,96,69,47,30.38,30.17,12,0,12,0.44
2013-3-10,45.8,35.4,26.7,33.5,30.1,25.5,96,82,61,30.44,30.34,8,0,8,0.01
2013-3-11,55.4,43.1,35.1,40.4,36.2,32.0,93,78,54,30.36,30.18,9,1,9,0.00
2013-3-12,56.9,50.1,40.8,53.2,47.6,39.2,96,91,79,30.19,29.75,15,1,15,0.30
2013-3-13,53.9,45.1,34.1,51.6,31.6,19.6,97,62,31,29.80,29.71,13,1,13,0.00
2013-3-14,37.1,32.3,22.4,24.5,15.5,6.8,68,50,36,29.85,29.73,14,1,14,0.00
2013-3-15,42.5,30.3,19.2,27.1,12.3,3.7,72,48,24,29.90,29.65,13,2,13,0.00
2013-3-16,41.5,34.0,24.0,26.2,15.1,8.3,80,48,27,29.90,29.69,11,1,11,0.00
2013-3-17,39.9,30.7,21.3,17.8,10.8,4.1,79,46,24,30.35,29.90,15,1,15,0.00
2013-3-18,39.4,28.5,16.7,27.2,10.5,0.6,92,48,26,30.48,30.27,9,1,9,0.00
2013-3-19,35.6,32.4,27.9,34.4,31.3,25.9,97,96,91,30.27,29.63,13,1,13,0.63
2013-3-20,41.4,31.3,23.9,25.8,22.2,18.3,95,71,42,29.84,29.71,14,1,14,0.19
2013-3-21,39.9,30.5,20.5,29.1,22.7,16.6,92,75,42,29.84,29.64,6,0,6,0.03
2013-3-22,43.2,34.3,27.3,27.6,20.5,15.9,94,59,35,29.76,29.63,10,1,10,0.00
2013-3-23,45.3,35.8,26.1,23.8,19.8,16.7,77,54,32,29.80,29.65,18,2,18,0.00
2013-3-24,50.1,38.6,28.6,30.9,24.2,19.8,82,58,36,29.83,29.75,13,1,13,0.00
2013-3-25,46.9,37.9,31.4,35.0,30.5,26.0,86,75,55,29.80,29.55,15,0,15,0.00
2013-3-26,52.2,41.5,33.4,31.1,24.8,18.9,89,54,29,29.80,29.56,14,1,14,0.00
2013-3-27,55.5,43.3,29.5,32.3,24.5,21.5,73,49,30,29.89,29.75,14,1,14,0.00
2013-3-28,48.4,42.2,36.4,35.9,33.5,28.9,91,72,48,30.03,29.88,9,0,9,0.01
2013-3-29,57.9,45.2,33.4,38.9,32.9,28.1,87,64,36,30.06,29.98,6,0,14,0.02
2013-3-30,59.6,46.7,33.3,33.8,25.4,12.6,79,49,16,30.12,30.01,12,1,12,0.00
2013-3-31,61.6,45.4,26.8,40.1,27.4,20.9,88,55,22,30.15,29.77,13,1,13,0.01
2013-4-1,62.7,47.4,34.9,47.4,36.9,12.5,96,70,36,29.81,29.51,13,1,13,0.15
2013-4-2,42.4,35.0,29.0,16.9,13.2,8.6,52,41,27,29.96,29.81,20,2,20,0.00
2013-4-3,48.9,37.9,29.4,18.1,12.9,8.6,59,38,20,30.05,29.94,17,2,17,0.00
2013-4-4,58.9,42.6,27.7,25.7,16.5,11.8,62,38,16,30.32,30.07,3,1,12,0.00
2013-4-5,64.0,46.8,37.5,30.2,26.6,21.0,70,48,21,30.08,29.64,3,2,13,0.00
2013-4-6,49.9,38.2,29.7,25.1,11.7,3.4,58,36,15,30.36,29.90,4,2,22,0.00
2013-4-7,54.8,41.8,26.0,40.0,28.0,16.4,85,61,30,30.36,30.03,5,2,19,0.00
2013-4-8,68.7,52.6,41.9,43.1,39.8,35.2,95,65,30,30.12,29.97,2,1,9,0.00
2013-4-9,73.1,55.6,46.4,52.3,44.2,38.7,93,69,36,30.11,29.87,3,1,17,1.66
2013-4-10,65.0,51.2,46.0,49.0,44.8,41.4,94,80,52,30.03,29.89,2,0,9,0.21
2013-4-11,54.4,47.3,43.2,46.6,41.3,29.1,96,81,56,30.17,29.84,7,0,7,0.06
2013-4-12,43.1,39.0,37.2,38.0,35.3,31.0,96,87,65,30.20,29.81,14,1,14,0.49
2013-4-13,53.6,42.1,35.5,41.0,37.1,34.0,96,83,53,29.95,29.78,13,1,13,0.04
2013-4-14,54.8,46.1,36.8,41.0,32.7,26.2,93,62,36,30.24,29.93,13,1,13,0.00
2013-4-15,57.4,45.0,31.8,39.1,33.4,27.8,87,65,42,30.42,30.24,10,1,10,0.00
2013-4-16,65.7,52.2,35.7,50.5,41.4,33.9,96,69,44,30.43,30.08,18,2,18,0.00
2013-4-17,69.7,59.2,47.0,52.5,37.2,27.2,83,48,22,30.35,30.07,15,1,15,0.00
2013-4-18,64.7,52.2,40.2,43.7,34.6,25.0,78,53,30,30.45,30.17,13,1,14,0.00
2013-4-19,75.8,64.0,52.7,63.0,57.5,43.6,96,81,56,30.17,29.68,15,2,15,0.00
2013-4-20,66.8,54.7,44.6,62.7,41.3,23.4,94,64,36,30.23,29.62,16,1,16,0.56
2013-4-21,56.7,43.4,33.4,32.0,23.7,19.1,73,47,25,30.70,30.23,12,1,12,0.00
2013-4-22,52.5,42.4,31.2,36.1,30.9,23.1,90,66,32,30.79,30.62,13,1,13,0.00
2013-4-23,42.6,41.3,39.5,40.9,38.1,31.4,96,89,72,30.62,30.15,10,0,10,0.07
2013-4-24,76.5,55.3,41.9,53.6,45.7,40.8,96,74,36,30.15,29.81,13,1,13,0.01
2013-4-25,68.7,55.8,44.5,52.6,37.1,23.8,92,55,20,30.28,29.85,14,1,14,0.03
2013-4-26,59.7,50.1,42.0,41.2,35.9,29.3,89,60,41,30.45,30.28,10,0,11,0.00
2013-4-27,65.9,52.1,35.7,42.8,36.5,31.8,98,61,31,30.44,30.31,9,1,9,0.00
2013-4-28,69.0,54.8,36.9,41.5,36.0,27.1,94,54,30,30.36,30.24,9,1,9,0.00
2013-4-29,71.5,57.9,44.6,48.4,37.8,18.8,90,52,22,30.30,30.20,10,1,10,0.00
2013-4-30,70.8,55.2,40.4,39.2,30.5,10.9,81,45,12,30.39,30.27,9,0,10,0.00
2013-5-1,69.5,54.1,36.9,41.0,35.7,30.4,91,55,24,30.49,30.39,4,0,7,0.00
2013-5-2,79.0,55.3,40.7,47.3,40.9,35.8,94,64,24,30.51,30.38,12,0,12,0.00
2013-5-3,63.3,50.4,42.0,45.6,41.0,38.0,90,72,48,30.55,30.40,9,0,9,0.00
2013-5-4,60.0,48.4,37.3,46.4,40.1,35.7,96,75,51,30.40,30.34,9,0,9,0.00
2013-5-5,61.1,48.4,35.8,42.4,39.1,34.7,97,74,45,30.36,30.28,11,0,11,0.00
2013-5-6,67.8,50.1,35.6,49.6,43.8,34.5,97,81,49,30.32,30.18,7,0,7,0.00
2013-5-7,76.2,61.1,41.1,59.1,50.9,40.3,98,72,44,30.20,30.11,8,0,8,0.00
2013-5-8,73.5,60.9,51.4,63.1,56.8,50.1,97,87,67,30.23,30.07,10,0,10,0.23
2013-5-9,71.2,59.4,56.0,63.5,57.6,54.7,98,94,71,30.08,29.91,5,0,5,0.91
2013-5-10,80.8,64.6,55.9,61.7,57.2,54.7,98,79,43,29.98,29.91,8,0,8,0.01
2013-5-11,73.0,64.5,59.1,62.7,59.0,54.5,94,83,67,29.93,29.71,12,1,12,0.08
2013-5-12,73.0,61.9,50.6,60.5,51.5,29.8,95,72,38,29.83,29.58,11,1,11,0.08
2013-5-13,62.0,50.9,40.4,35.1,30.6,26.2,81,48,28,30.05,29.83,13,1,13,0.00
2013-5-14,60.2,50.1,39.5,35.6,31.4,27.4,77,51,31,30.07,29.99,11,1,11,0.00
2013-5-15,68.3,53.0,34.1,52.1,39.8,30.3,94,66,29,30.08,29.70,13,1,13,0.02
2013-5-16,84.0,66.3,44.3,53.5,41.5,32.0,98,50,19,29.82,29.64,15,1,15,0.00
2013-5-17,71.8,59.4,48.5,45.0,41.7,35.8,85,54,28,30.23,29.82,10,1,10,0.00
2013-5-18,73.0,59.4,43.0,50.6,44.8,36.0,96,62,28,30.33,30.23,10,0,10,0.00
2013-5-19,74.0,56.8,46.7,54.7,50.1,44.6,95,80,46,30.37,30.25,9,0,9,0.12
2013-5-20,84.3,67.4,55.8,64.6,60.1,54.4,97,80,49,30.25,29.92,11,0,11,0.07
2013-5-21,80.7,61.4,51.3,66.5,56.8,49.9,98,86,58,30.05,29.89,8,0,9,0.20
2013-5-22,68.8,56.6,50.4,60.6,53.4,49.1,97,89,72,30.08,29.91,7,0,7,0.10
2013-5-23,78.5,64.8,54.2,69.5,61.0,53.1,98,88,71,29.95,29.83,14,1,14,0.12
2013-5-24,72.7,63.1,49.3,67.4,60.9,48.2,97,93,73,29.84,29.67,8,0,8,0.85
2013-5-25,52.5,48.1,41.5,50.9,46.7,39.1,97,95,91,29.83,29.72,11,1,11,0.41
2013-5-26,60.4,49.1,39.6,44.1,39.8,37.2,95,72,43,30.12,29.74,17,1,17,0.07
2013-5-27,75.3,57.3,38.6,43.9,39.1,33.1,97,58,22,30.19,30.09,12,1,12,0.00
2013-5-28,74.2,59.3,42.4,52.9,46.0,38.1,96,66,33,30.26,30.18,8,0,8,0.00
2013-5-29,71.8,63.1,58.7,64.5,59.6,52.9,97,89,75,30.21,30.01,6,0,6,1.02
2013-5-30,91.2,75.2,60.2,69.2,65.3,59.6,99,75,44,30.09,30.00,15,1,15,0.00
2013-5-31,97.7,82.1,64.4,69.2,65.1,61.1,96,61,32,30.09,29.93,10,1,10,0.00
2013-6-1,95.4,82.1,68.7,68.0,64.9,61.6,81,59,35,29.98,29.86,11,1,11,0.00
2013-6-2,92.4,79.7,69.8,69.8,66.0,62.2,85,65,39,29.89,29.72,17,2,17,0.00
2013-6-3,80.7,70.6,62.5,67.7,62.9,44.4,94,78,49,29.86,29.76,7,0,7,0.38
2013-6-4,74.8,62.6,50.4,48.6,44.8,41.5,77,54,35,30.11,29.83,16,1,16,0.00
2013-6-5,77.7,63.7,49.1,53.2,47.2,41.8,88,58,31,30.21,30.11,8,0,8,0.00
2013-6-6,77.3,65.7,54.1,55.9,49.6,40.9,82,58,39,30.21,30.11,11,0,11,0.00
2013-6-7,60.1,56.1,53.9,56.6,54.1,50.6,97,93,78,30.14,29.83,7,0,7,2.62
2013-6-8,81.3,64.0,53.6,64.4,57.8,52.8,97,82,55,30.02,29.63,12,1,12,0.77
2013-6-9,82.5,68.2,54.5,59.0,55.9,52.2,98,69,39,30.17,30.02,9,0,9,0.00
2013-6-10,70.0,62.5,55.5,59.3,56.9,53.6,96,83,63,30.23,30.04,7,0,7,0.70
2013-6-11,64.3,58.8,55.9,59.3,56.8,54.8,97,93,82,30.05,29.59,11,0,11,1.21
2013-6-12,72.5,62.8,56.3,58.9,55.7,53.1,98,79,54,29.83,29.58,19,1,19,0.08
2013-6-13,71.2,58.4,52.0,58.3,53.7,50.5,96,85,53,29.83,29.70,6,0,6,0.62
2013-6-14,75.3,60.7,51.6,58.6,54.3,50.2,97,82,50,29.78,29.66,8,0,8,1.15
2013-6-15,82.0,67.4,54.5,55.0,48.6,41.1,94,56,24,29.95,29.78,10,1,10,0.00
2013-6-16,78.8,66.7,51.7,62.3,54.0,47.5,90,66,38,29.95,29.73,10,0,10,0.00
2013-6-17,88.5,70.1,57.4,65.7,60.1,55.2,96,75,33,29.92,29.79,10,1,10,0.67
2013-6-18,78.3,63.6,58.4,65.4,60.0,57.3,98,89,59,29.96,29.90,6,0,6,0.36
2013-6-19,77.3,64.8,55.3,58.0,52.7,45.3,98,69,36,30.16,29.92,7,0,7,0.03
2013-6-20,82.0,67.2,50.3,56.9,52.1,45.6,97,63,30,30.27,30.16,8,0,8,0.00
2013-6-21,87.8,73.1,59.2,65.1,58.3,52.4,83,62,32,30.26,30.19,6,0,6,0.00
2013-6-22,87.2,74.3,62.7,64.3,59.4,56.0,81,62,38,30.23,30.12,10,1,10,0.00
2013-6-23,93.3,78.5,66.2,72.6,64.6,56.0,77,63,46,30.17,30.00,11,1,12,0.00
2013-6-24,96.3,82.0,71.0,72.6,70.0,67.7,94,70,42,30.03,29.87,11,1,11,0.32
2013-6-25,94.2,81.1,69.4,71.1,68.4,64.9,93,68,40,29.93,29.72,11,1,11,0.01
2013-6-26,86.4,76.3,68.8,76.1,69.4,66.9,94,80,55,29.86,29.72,8,0,8,0.11
2013-6-27,73.5,66.5,62.5,67.4,63.8,61.0,97,91,77,29.88,29.77,7,0,7,0.04
2013-6-28,84.8,71.6,61.0,73.8,67.4,60.1,99,88,62,29.78,29.50,14,1,14,0.36
2013-6-29,86.3,76.5,71.2,72.1,69.0,64.7,94,79,53,29.74,29.53,13,1,13,0.00
2013-6-30,93.0,77.8,70.0,73.5,70.0,67.3,93,78,52,29.94,29.74,18,0,18,0.03
2013-7-1,82.3,75.5,71.5,76.2,72.2,70.1,96,90,76,30.09,29.94,10,0,12,0.09
2013-7-2,84.8,73.9,62.9,74.3,69.2,60.4,93,86,67,30.23,30.08,8,0,8,0.00
2013-7-3,90.8,77.2,62.0,74.7,69.0,60.0,94,77,54,30.21,30.13,12,1,12,0.00
2013-7-4,95.9,84.4,72.4,76.6,73.2,70.7,96,71,48,30.21,30.09,9,1,9,0.00
2013-7-5,96.9,86.4,76.5,76.4,73.5,71.1,87,67,45,30.16,30.03,9,1,9,0.00
2013-7-6,93.8,84.3,74.5,75.0,71.5,64.0,92,67,47,30.08,29.97,9,1,9,0.00
2013-7-7,95.8,80.7,68.8,75.9,69.9,63.2,90,71,47,30.02,29.90,7,0,9,0.02
2013-7-8,86.5,77.3,68.4,76.3,71.2,64.8,95,82,66,30.08,29.91,8,0,8,0.01
2013-7-9,74.5,69.2,65.3,68.1,65.2,63.4,95,87,79,30.12,30.05,4,0,4,0.01
2013-7-10,86.1,74.4,66.3,75.4,70.1,63.6,97,87,66,30.09,29.80,13,1,13,0.04
2013-7-11,83.2,77.1,72.2,74.6,72.2,68.9,97,85,67,29.90,29.78,5,0,5,0.07
2013-7-12,78.6,71.5,67.2,69.4,62.2,58.1,95,73,54,30.21,29.92,2,0,11,0.00
2013-7-13,78.2,70.8,66.3,69.4,65.9,62.6,96,85,73,30.33,30.21,1,0,6,0.00
2013-7-14,94.5,79.8,68.2,75.2,71.3,67.0,97,78,42,30.31,30.21,8,0,8,0.00
2013-7-15,95.3,81.5,70.3,74.7,71.7,69.0,97,74,45,30.21,30.10,5,0,5,0.00
2013-7-16,96.8,82.1,70.8,72.1,69.0,65.7,93,67,38,30.17,30.11,6,0,6,0.00
2013-7-17,97.8,84.3,69.9,74.1,70.5,65.6,94,67,37,30.18,30.00,8,0,8,0.00
2013-7-18,95.5,82.9,76.1,76.1,71.6,66.9,88,70,45,30.01,29.95,9,1,9,0.00
2013-7-19,100.3,87.7,73.6,78.0,73.9,69.1,93,67,38,29.95,29.71,12,1,12,0.00
2013-7-20,96.8,86.1,75.6,78.2,73.3,65.4,87,67,44,29.81,29.65,10,1,10,0.00
2013-7-21,82.3,75.3,70.5,68.3,64.7,59.9,90,71,49,30.00,29.81,9,1,9,0.00
2013-7-22,83.2,73.8,66.4,71.2,67.3,64.8,97,81,60,30.02,29.90,10,1,10,0.00
2013-7-23,81.7,72.6,69.0,76.3,70.9,66.9,98,95,81,29.90,29.55,13,0,13,0.82
2013-7-24,87.8,77.4,67.5,75.8,68.0,55.2,99,75,53,29.97,29.59,8,0,8,0.00
2013-7-25,67.3,61.8,59.5,58.8,55.3,49.3,96,80,62,30.12,29.96,9,0,9,0.41
2013-7-26,70.7,64.9,59.9,67.2,63.2,58.8,97,94,83,30.07,29.94,9,0,9,0.73
2013-7-27,87.0,73.0,58.0,68.4,63.2,57.3,99,75,44,30.07,30.00,9,0,9,0.00
2013-7-28,82.2,72.0,65.5,72.8,67.8,63.3,96,87,70,30.03,29.98,6,0,6,0.02
2013-7-29,85.7,73.5,67.2,71.9,68.3,65.5,97,85,60,30.04,29.97,8,0,8,0.26
2013-7-30,84.5,72.7,60.1,67.6,61.5,55.3,98,71,39,30.10,30.04,8,0,8,0.00
2013-7-31,83.4,72.4,59.9,63.7,60.5,55.4,94,69,39,30.15,30.05,3,0,7,0.00
2013-8-1,84.8,72.8,61.8,66.5,62.5,59.7,96,72,47,30.06,29.89,10,1,10,0.00
2013-8-2,85.7,72.6,64.3,70.1,63.2,57.5,97,75,42,29.90,29.80,11,0,11,0.49
2013-8-3,80.5,71.4,63.7,65.3,63.0,60.4,96,77,53,29.87,29.78,9,1,9,0.00
2013-8-4,83.0,69.0,58.6,64.4,58.5,54.6,95,72,40,29.90,29.77,8,0,8,0.11
2013-8-5,78.1,65.6,54.5,56.1,50.2,41.9,93,62,31,30.06,29.89,9,1,9,0.00
2013-8-6,81.7,66.0,50.1,57.0,51.7,47.8,94,64,33,30.17,30.06,9,0,9,0.00
2013-8-7,81.7,69.3,55.0,61.4,55.1,48.2,97,65,38,30.20,30.12,11,1,11,0.00
2013-8-8,82.3,72.9,65.7,71.2,66.0,53.7,93,79,63,30.15,30.01,10,1,10,0.06
2013-8-9,75.0,73.0,71.4,74.1,71.2,69.2,98,94,89,30.04,29.76,11,0,11,1.17
2013-8-10,85.7,74.5,62.1,71.0,63.0,56.1,98,71,42,30.02,29.80,8,1,8,0.01
2013-8-11,81.9,68.9,54.1,59.8,55.5,50.5,97,66,38,30.09,30.01,8,0,10,0.00
2013-8-12,84.8,72.0,59.5,62.8,58.7,53.8,95,67,37,30.04,29.93,7,0,7,0.00
2013-8-13,76.3,69.3,64.5,67.9,63.8,60.4,95,83,60,29.94,29.70,6,0,6,0.00
2013-8-14,77.5,68.3,59.9,63.2,55.3,51.1,95,66,43,29.98,29.67,12,1,12,0.00
2013-8-15,80.0,66.8,53.5,54.7,52.1,48.2,92,63,34,30.12,29.98,9,0,9,0.00
2013-8-16,82.2,68.6,53.5,58.1,54.6,50.5,94,64,36,30.20,30.12,10,1,10,0.00
2013-8-17,81.5,69.5,58.8,62.8,57.6,54.6,89,68,46,30.29,30.20,9,0,9,0.00
2013-8-18,82.7,70.8,59.8,64.2,59.1,54.4,94,69,41,30.29,30.10,9,0,9,0.00
2013-8-19,84.3,73.0,59.9,63.7,60.3,56.3,94,67,42,30.10,29.96,9,0,9,0.00
2013-8-20,89.3,76.0,63.9,65.3,61.7,56.4,87,64,34,30.10,29.99,6,0,6,0.00
2013-8-21,91.5,77.0,60.9,66.9,63.2,59.1,95,66,38,30.15,30.03,7,0,7,0.00
2013-8-22,89.2,76.5,66.6,72.2,67.0,63.2,90,74,45,30.04,29.83,9,1,9,0.00
2013-8-23,83.3,72.7,61.9,69.3,60.5,51.2,94,67,42,30.14,29.83,9,1,9,0.00
2013-8-24,79.3,66.0,54.7,53.5,47.9,41.6,83,56,27,30.35,30.14,9,0,9,0.00
2013-8-25,85.8,69.5,52.5,56.8,51.8,46.7,92,58,29,30.38,30.20,9,0,9,0.00
2013-8-26,85.3,73.1,65.2,66.6,62.2,56.1,85,70,50,30.20,29.88,10,0,10,0.00
2013-8-27,82.8,73.8,65.8,70.4,67.1,63.7,95,81,59,29.91,29.84,9,0,9,0.01
2013-8-28,83.5,70.8,61.8,68.1,64.4,60.6,98,82,53,30.00,29.87,9,1,9,0.00
2013-8-29,66.8,64.9,62.4,64.6,61.6,57.6,94,89,83,30.09,29.97,6,0,6,0.00
2013-8-30,84.7,72.1,62.2,68.2,63.4,58.1,89,76,54,30.05,29.83,8,0,8,0.00
2013-8-31,82.2,74.9,69.0,75.0,70.6,66.9,95,87,75,29.85,29.80,9,0,9,0.04
2013-9-1,78.9,73.5,70.3,75.3,70.9,66.7,97,92,83,29.90,29.80,6,0,6,0.46
2013-9-2,82.9,75.1,71.9,75.8,71.7,69.3,97,89,72,29.89,29.72,10,0,10,0.06
2013-9-3,84.1,74.7,64.5,71.8,68.1,58.1,97,81,57,29.82,29.70,11,0,11,0.00
2013-9-4,83.5,70.2,57.7,60.9,57.5,53.8,95,67,39,29.93,29.81,9,0,9,0.00
2013-9-5,72.9,63.1,50.3,63.3,56.4,42.8,94,80,36,30.16,29.87,6,0,6,0.06
2013-9-6,71.3,58.2,45.1,48.3,43.7,37.6,93,63,32,30.26,30.11,7,0,7,0.00
2013-9-7,82.8,65.6,49.6,56.5,49.9,45.5,87,60,33,30.11,29.87,8,0,8,0.00
2013-9-8,77.7,65.8,51.0,62.3,52.4,40.5,93,64,35,30.11,29.76,11,1,11,0.01
2013-9-9,72.0,58.6,43.2,50.7,44.4,39.8,92,63,35,30.26,30.11,10,0,10,0.00
2013-9-10,75.8,67.2,55.6,70.4,62.2,50.1,94,84,76,30.18,30.05,11,0,11,0.08
2013-9-11,98.3,81.9,67.6,77.1,71.3,66.4,98,74,41,30.09,29.94,12,1,12,0.00
2013-9-12,90.0,78.5,67.3,74.7,70.2,65.7,95,77,53,29.98,29.68,12,1,12,1.41
2013-9-13,81.7,69.1,59.7,69.4,64.6,54.5,97,86,57,29.77,29.57,8,0,8,0.17
2013-9-14,70.0,61.5,52.0,57.5,53.4,49.9,93,75,59,30.08,29.77,9,0,9,0.00
2013-9-15,74.8,60.2,48.1,53.2,49.6,46.0,97,72,37,30.18,30.07,9,0,9,0.00
2013-9-16,70.1,58.9,48.8,55.4,50.5,39.7,87,74,55,30.27,30.03,6,0,7,0.00
2013-9-17,65.0,52.1,39.7,44.6,39.8,36.2,91,66,39,30.44,30.27,12,0,12,0.00
2013-9-18,76.8,57.7,40.9,50.1,44.5,39.8,97,67,30,30.35,30.16,7,0,7,0.00
2013-9-19,80.8,61.8,46.1,55.7,51.1,45.0,97,72,34,30.16,30.05,6,0,6,0.00
2013-9-20,80.0,62.4,48.9,59.2,54.1,48.0,98,78,41,30.10,30.02,7,0,7,0.00
2013-9-21,77.3,66.0,51.8,65.7,59.7,50.7,98,82,56,30.05,29.75,13,1,13,0.00
2013-9-22,74.0,65.6,52.7,67.2,57.5,45.6,96,77,49,29.84,29.63,11,1,13,0.56
2013-9-23,65.7,54.1,45.2,46.1,42.6,39.8,86,66,46,30.02,29.84,11,1,11,0.00
2013-9-24,69.3,53.6,41.3,46.4,42.6,38.9,92,69,38,30.01,29.83,10,0,10,0.00
2013-9-25,69.0,55.0,44.3,50.8,47.1,43.0,95,76,50,30.00,29.90,8,0,8,0.00
2013-9-26,68.0,58.2,53.0,51.6,49.5,46.2,89,74,50,30.15,30.00,8,0,8,0.00
2013-9-27,67.2,58.6,49.5,54.3,51.3,47.7,94,78,58,30.28,30.15,8,0,8,0.00
2013-9-28,74.4,59.0,48.8,57.6,52.3,47.4,96,81,48,30.35,30.27,9,0,9,0.00
2013-9-29,67.7,54.6,46.0,54.9,49.1,44.9,98,84,49,30.29,30.15,8,0,8,0.00
2013-9-30,69.6,55.6,47.8,53.7,50.0,46.6,98,84,48,30.15,29.99,7,0,7,0.01
2013-10-1,78.8,60.6,47.1,56.4,51.0,46.0,98,75,35,29.99,29.86,8,0,8,0.00
2013-10-2,82.5,66.3,51.6,61.7,57.2,50.5,97,75,48,29.96,29.83,10,0,10,0.00
2013-10-3,80.3,64.5,53.8,56.7,51.4,43.6,94,67,30,30.10,29.96,5,0,5,0.00
2013-10-4,66.6,59.2,50.3,59.4,54.5,48.0,95,84,70,30.10,30.05,2,0,2,0.03
2013-10-5,71.3,62.6,58.1,59.2,57.1,54.7,95,83,62,30.14,30.07,6,0,6,0.00
2013-10-6,60.7,57.0,54.7,57.5,55.5,53.3,98,95,84,30.25,30.13,6,0,6,0.45
2013-10-7,78.4,67.0,57.7,71.0,63.7,55.9,99,90,72,30.15,29.84,15,1,15,0.05
2013-10-8,67.2,57.4,45.9,56.1,45.7,38.8,85,67,40,30.39,29.92,7,0,7,0.00
2013-10-9,62.5,51.5,43.2,48.6,43.9,40.6,94,77,52,30.50,30.39,13,0,13,0.00
2013-10-10,63.3,52.5,43.1,53.8,48.6,42.0,96,87,68,30.39,30.20,6,0,6,0.00
2013-10-11,72.5,57.6,48.5,57.2,48.9,31.8,97,77,23,30.20,30.12,6,0,6,0.00
2013-10-12,61.6,54.6,47.6,57.0,51.6,46.3,98,90,79,30.42,30.17,9,0,9,0.00
2013-10-13,61.4,51.3,42.3,52.3,46.1,40.9,97,84,60,30.47,30.40,8,0,8,0.00
2013-10-14,66.7,49.9,35.9,50.1,42.8,32.7,98,80,32,30.43,30.28,7,0,7,0.00
2013-10-15,68.0,56.5,46.8,55.6,50.9,45.4,97,82,59,30.29,30.20,7,0,7,0.00
2013-10-16,63.1,55.2,47.5,56.4,52.2,46.4,98,90,75,30.20,29.94,4,0,4,0.00
2013-10-17,73.3,61.5,51.2,61.3,57.1,50.1,98,87,63,29.94,29.74,10,0,10,0.01
2013-10-18,69.2,60.3,45.3,60.9,51.6,41.9,96,76,45,29.93,29.63,15,1,15,0.04
2013-10-19,67.9,53.8,38.1,47.4,42.8,37.0,98,70,39,30.00,29.78,7,0,7,0.00
2013-10-20,63.9,52.8,39.2,51.1,41.1,33.1,97,68,34,30.04,29.71,15,1,15,0.02
2013-10-21,69.4,51.5,35.8,44.2,39.8,34.2,97,68,36,30.14,30.02,9,0,9,0.00
2013-10-22,69.0,53.3,40.5,53.0,45.5,38.7,98,77,48,30.02,29.73,9,0,9,0.00
2013-10-23,52.9,45.1,35.0,38.9,35.4,32.7,95,71,48,29.82,29.62,3,0,3,0.00
2013-10-24,54.6,44.6,35.3,36.5,30.8,24.5,87,61,36,29.91,29.66,13,1,13,0.00
2013-10-25,51.7,39.1,29.6,35.5,29.2,26.3,94,70,40,30.18,29.91,11,0,12,0.00
2013-10-26,56.9,42.2,27.5,36.8,29.8,25.9,96,66,31,30.18,29.90,13,1,13,0.00
2013-10-27,55.6,47.3,36.4,41.8,35.5,29.3,93,66,42,30.08,29.84,10,0,10,0.04
2013-10-28,59.5,43.7,30.4,36.7,31.6,25.7,95,66,38,30.38,30.08,6,1,11,0.00
2013-10-29,52.2,37.7,30.0,33.9,27.8,22.7,94,70,35,30.47,30.37,5,0,5,0.00
2013-10-30,50.9,39.5,31.6,43.1,36.7,30.0,96,90,72,30.40,30.22,3,0,3,0.05
2013-10-31,62.3,48.5,32.6,59.7,46.5,31.8,98,93,81,30.27,29.82,12,0,12,0.07
2013-11-1,70.8,64.4,56.1,63.2,58.4,53.0,96,81,64,29.82,29.48,25,2,25,0.07
2013-11-2,68.2,55.2,44.2,53.6,45.8,40.9,97,74,38,29.75,29.60,6,0,7,0.01
2013-11-3,50.2,41.3,30.1,48.3,32.2,17.3,93,72,46,30.45,29.74,6,0,6,0.04
2013-11-4,44.9,32.7,24.9,23.5,20.1,14.9,87,62,32,30.73,30.45,6,0,6,0.00
2013-11-5,52.1,37.5,25.7,35.0,28.3,21.7,87,71,44,30.75,30.54,6,0,6,0.00
2013-11-6,62.7,49.9,37.3,50.1,41.4,32.7,89,74,48,30.55,30.07,10,0,10,0.00
2013-11-7,66.7,54.0,37.7,58.4,50.1,33.5,95,87,69,30.07,29.69,12,1,12,0.25
2013-11-8,48.4,39.0,29.7,35.8,28.3,22.5,90,66,49,30.12,29.84,15,0,15,0.00
2013-11-9,45.8,39.0,30.3,29.8,25.0,22.0,75,58,39,30.23,30.07,8,0,8,0.00
2013-11-10,57.0,45.9,38.7,45.0,37.2,29.3,96,73,50,30.07,29.75,9,0,9,0.07
2013-11-11,53.7,45.2,37.3,33.4,29.2,24.6,72,55,33,30.12,29.87,11,1,11,0.00
2013-11-12,48.4,35.5,26.3,39.8,26.0,16.5,91,69,53,30.22,29.91,12,0,12,0.13
2013-11-13,38.7,28.7,23.0,17.5,15.5,12.0,76,58,39,30.31,30.19,8,0,9,0.00
2013-11-14,51.9,37.9,27.5,26.9,21.9,16.5,70,54,33,30.19,30.06,12,1,12,0.00
2013-11-15,62.7,44.8,28.2,33.7,23.6,18.1,76,47,19,30.22,30.12,13,0,13,0.00
2013-11-16,62.2,44.5,34.1,33.9,30.4,23.9,88,61,26,30.34,30.21,4,0,4,0.00
2013-11-17,56.7,45.7,31.7,53.6,42.0,29.6,98,87,70,30.34,29.87,7,0,7,0.06
2013-11-18,67.3,58.4,47.3,61.7,48.0,31.9,98,71,44,29.87,29.55,14,1,14,0.15
2013-11-19,47.9,39.7,30.3,32.3,23.0,16.9,59,51,38,30.30,29.67,18,1,18,0.00
2013-11-20,43.4,31.8,24.2,17.3,15.9,12.4,74,53,30,30.65,30.30,9,0,9,0.00
2013-11-21,48.4,35.2,23.1,29.1,21.0,15.5,74,57,33,30.67,30.41,9,0,9,0.00
2013-11-22,46.3,43.4,37.4,45.2,40.8,28.7,97,91,70,30.40,29.84,3,0,3,0.21
2013-11-23,46.6,40.1,29.4,45.4,27.7,16.5,98,63,36,29.92,29.80,13,1,13,0.01
2013-11-24,29.4,24.4,19.5,17.2,5.3,-2.8,69,45,27,30.21,29.80,10,2,23,0.00
2013-11-25,35.1,25.1,16.0,17.8,3.7,-5.5,58,40,20,30.39,30.21,12,1,12,0.00
2013-11-26,43.6,36.6,30.8,42.4,24.2,17.0,96,62,47,30.36,30.06,12,0,12,0.12
2013-11-27,62.6,51.8,37.8,61.0,50.3,34.3,98,95,86,30.06,29.23,17,2,17,1.69
2013-11-28,37.8,31.2,23.6,34.3,17.9,7.7,87,59,35,30.46,29.46,22,1,22,0.00
2013-11-29,35.7,26.2,18.7,17.7,12.4,6.3,84,57,35,30.77,30.46,6,0,6,0.00
2013-11-30,33.9,25.1,15.9,25.4,16.1,9.0,81,69,53,30.82,30.46,5,0,6,0.00
2013-12-1,39.1,36.1,33.3,37.8,33.3,25.4,97,90,72,30.46,30.03,5,0,5,0.18
2013-12-2,39.9,37.6,36.2,38.7,36.7,35.3,98,96,94,30.03,29.95,4,0,4,0.01
2013-12-3,49.6,38.0,32.1,38.3,34.2,29.9,97,87,58,29.97,29.87,6,0,6,0.00
2013-12-4,43.7,34.5,28.6,30.7,28.5,26.6,96,80,54,30.23,29.97,7,0,7,0.00
2013-12-5,50.4,42.4,28.5,49.9,39.9,26.7,98,91,84,30.24,29.94,9,0,9,0.00
2013-12-6,55.3,48.2,33.4,54.5,44.7,32.0,98,88,66,30.17,29.88,5,0,7,0.25
2013-12-7,41.6,33.2,24.6,33.9,27.6,19.9,96,81,52,30.48,30.10,15,0,15,0.19
2013-12-8,30.8,27.2,19.8,21.6,17.8,15.5,89,68,53,30.63,30.48,5,0,5,0.00
2013-12-9,39.6,33.2,25.8,38.8,31.3,16.1,98,93,59,30.53,29.91,10,0,10,0.26
2013-12-10,33.7,30.4,24.3,32.4,28.1,16.0,98,91,67,30.02,29.80,10,0,10,0.00
2013-12-11,32.1,25.7,20.8,20.2,18.4,16.4,85,74,55,30.24,30.02,12,1,12,0.00
2013-12-12,27.0,20.9,13.9,18.3,8.4,1.3,82,60,34,30.30,30.10,14,0,14,0.00
2013-12-13,29.7,21.5,14.1,18.5,11.5,0.9,83,65,51,30.42,30.02,13,1,13,0.00
2013-12-14,29.2,16.7,10.2,28.2,7.7,-3.4,96,69,49,30.64,30.17,10,1,10,0.00
2013-12-15,34.6,28.0,22.3,34.1,26.3,20.4,98,93,84,30.17,29.43,11,0,11,0.01
2013-12-16,29.7,23.9,16.5,23.2,14.3,7.6,89,68,44,30.24,29.77,7,0,7,0.00
2013-12-17,19.9,13.7,3.4,18.2,9.0,-0.6,94,82,57,30.32,29.97,4,0,4,0.00
2013-12-18,36.2,25.1,16.0,23.2,19.3,13.5,91,79,54,30.10,29.89,0,0,0,0.06
2013-12-19,44.4,32.2,23.4,28.6,24.6,19.3,89,74,49,30.15,29.98,10,0,10,0.34
2013-12-20,54.2,40.5,28.9,38.2,32.8,26.6,92,75,51,30.15,29.92,7,0,7,0.09
2013-12-21,57.7,47.1,37.8,47.9,42.0,34.0,94,83,69,29.98,29.88,7,0,7,0.00
2013-12-22,49.4,39.4,34.1,48.8,38.7,33.6,98,97,94,30.06,29.81,8,0,8,0.00
2013-12-23,36.5,33.6,31.9,36.0,33.1,31.4,98,98,98,30.12,29.98,5,0,5,0.73
2013-12-24,36.5,32.0,25.7,36.0,23.3,14.7,98,71,50,30.23,30.07,9,0,9,0.00
2013-12-25,25.8,19.1,13.5,16.6,7.0,1.7,80,60,42,30.58,30.22,9,1,9,0.00
2013-12-26,35.0,25.9,15.4,31.4,22.1,10.5,94,85,70,30.54,30.11,5,0,5,0.00
2013-12-27,34.9,26.5,19.7,22.8,20.5,17.8,95,79,57,30.30,30.22,11,0,11,0.00
2013-12-28,48.1,32.5,20.6,29.1,25.0,18.3,93,76,45,30.25,30.01,12,0,12,0.01
2013-12-29,42.0,35.7,28.0,39.2,32.4,24.9,97,88,69,30.06,29.42,11,0,11,1.25
2013-12-30,42.5,32.4,17.8,36.0,24.2,9.1,98,74,45,30.19,29.53,11,1,12,0.01
2013-12-31,26.6,18.7,13.0,16.0,6.2,-2.8,81,58,42,30.21,30.05,8,0,8,0.00
2014-1-1,29.3,20.9,12.7,13.1,9.5,6.6,82,62,42,30.42,30.21,11,0,11,0.00
2014-1-2,21.1,12.4,1.3,15.6,9.0,-1.9,88,86,65,30.39,29.88,11,1,11,0.00